createdAt,value
2022-08-19T00:02:06.174Z,2.47
2022-08-19T00:04:37.580Z,2.70
2022-08-19T00:07:07.237Z,2.40
2022-08-19T00:09:36.702Z,2.22
2022-08-19T00:14:35.802Z,2.63
2022-08-19T00:17:23.243Z,2.72
2022-08-19T00:19:51.317Z,2.97
2022-08-19T00:22:19.427Z,2.67
2022-08-19T00:24:50.845Z,3.20
2022-08-19T00:27:26.452Z,2.72
2022-08-19T00:29:55.213Z,2.60
2022-08-19T00:32:39.672Z,2.60
2022-08-19T00:35:08.888Z,2.40
2022-08-19T00:37:37.009Z,2.83
2022-08-19T00:40:07.618Z,3.08
2022-08-19T00:42:36.727Z,2.67
2022-08-19T00:45:11.559Z,2.55
2022-08-19T00:47:54.838Z,2.78
2022-08-19T00:50:23.714Z,2.58
2022-08-19T00:52:54.596Z,2.50
2022-08-19T00:55:29.788Z,3.10
2022-08-19T00:58:10.220Z,2.30
2022-08-19T01:00:47.029Z,3.30
2022-08-19T01:03:24.242Z,3.17
2022-08-19T01:05:55.868Z,3.40
2022-08-19T01:08:30.546Z,2.90
2022-08-19T01:11:02.125Z,3.03
2022-08-19T01:13:50.406Z,3.20
2022-08-19T01:16:20.909Z,3.50
2022-08-19T01:18:51.084Z,3.22
2022-08-19T01:21:24.087Z,4.00
2022-08-19T01:23:53.475Z,3.55
2022-08-19T01:26:24.376Z,3.38
2022-08-19T01:28:56.178Z,3.05
2022-08-19T01:31:32.596Z,3.00
2022-08-19T01:34:03.019Z,3.45
2022-08-19T01:36:34.117Z,2.88
2022-08-19T01:39:06.283Z,3.00
2022-08-19T01:41:34.886Z,3.17
2022-08-19T01:44:17.074Z,2.93
2022-08-19T01:46:50.504Z,3.13
2022-08-19T01:49:35.223Z,2.85
2022-08-19T01:52:17.414Z,2.58
2022-08-19T01:54:50.807Z,3.00
2022-08-19T01:57:18.838Z,2.65
2022-08-19T01:59:47.737Z,3.58
2022-08-19T02:02:15.799Z,2.75
2022-08-19T02:04:43.871Z,2.78
2022-08-19T02:07:11.928Z,2.80
2022-08-19T02:09:40.216Z,2.67
2022-08-19T02:12:14.548Z,3.28
2022-08-19T02:14:42.708Z,3.10
2022-08-19T02:17:12.132Z,3.08
2022-08-19T02:19:41.356Z,3.13
2022-08-19T02:22:12.454Z,2.58
2022-08-19T02:24:40.689Z,2.60
2022-08-19T02:27:10.091Z,3.10
2022-08-19T02:29:38.185Z,3.45
2022-08-19T02:32:07.793Z,3.05
2022-08-19T02:34:36.241Z,3.20
2022-08-19T02:37:04.279Z,2.90
2022-08-19T02:39:31.687Z,3.30
2022-08-19T02:42:03.047Z,2.92
2022-08-19T02:44:32.721Z,3.47
2022-08-19T02:47:00.748Z,3.38
2022-08-19T02:49:29.847Z,3.33
2022-08-19T02:52:07.941Z,3.30
2022-08-19T02:54:51.371Z,3.25
2022-08-19T02:57:33.259Z,3.08
2022-08-19T03:00:17.715Z,3.38
2022-08-19T03:02:47.080Z,2.92
2022-08-19T03:05:15.407Z,3.33
2022-08-19T03:07:43.760Z,3.10
2022-08-19T03:10:12.819Z,3.45
2022-08-19T03:12:41.348Z,3.25
2022-08-19T03:15:10.859Z,3.45
2022-08-19T03:20:09.160Z,3.35
2022-08-19T03:22:37.260Z,2.88
2022-08-19T03:25:05.886Z,3.63
2022-08-19T03:27:34.444Z,3.07
2022-08-19T03:30:05.448Z,3.78
2022-08-19T03:32:35.575Z,4.07
2022-08-19T03:35:11.196Z,3.33
2022-08-19T03:40:10.243Z,3.35
2022-08-19T03:42:49.654Z,3.50
2022-08-19T03:45:18.171Z,4.18
2022-08-19T03:47:46.268Z,3.75
2022-08-19T03:50:17.268Z,3.97
2022-08-19T03:53:03.455Z,3.08
2022-08-19T03:55:33.756Z,3.47
2022-08-19T03:58:03.654Z,3.90
2022-08-19T04:00:31.728Z,3.50
2022-08-19T04:03:01.782Z,3.08
2022-08-19T04:05:31.550Z,3.15
2022-08-19T04:08:01.451Z,3.83
2022-08-19T04:10:30.961Z,2.85
2022-08-19T04:15:26.887Z,3.83
2022-08-19T04:18:08.757Z,4.03
2022-08-19T04:20:48.493Z,4.13
2022-08-19T04:23:16.974Z,3.83
2022-08-19T04:25:46.648Z,3.65
2022-08-19T04:28:15.269Z,4.40
2022-08-19T04:30:45.645Z,4.93
2022-08-19T04:33:28.890Z,3.85
2022-08-19T04:36:01.880Z,4.63
2022-08-19T04:38:29.993Z,3.38
2022-08-19T04:41:15.511Z,3.88
2022-08-19T04:43:45.996Z,3.70
2022-08-19T04:46:28.536Z,5.05
2022-08-19T04:51:49.444Z,3.25
2022-08-19T04:54:38.563Z,3.33
2022-08-19T04:57:23.615Z,4.13
2022-08-19T04:59:55.618Z,3.53
2022-08-19T05:02:39.407Z,4.22
2022-08-19T05:05:10.736Z,3.45
2022-08-19T05:07:42.017Z,4.05
2022-08-19T05:10:12.546Z,4.78
2022-08-19T05:12:40.614Z,4.03
2022-08-19T05:15:09.928Z,4.78
2022-08-19T05:17:39.162Z,4.15
2022-08-19T05:20:28.768Z,4.72
2022-08-19T05:22:58.145Z,4.90
2022-08-19T05:25:26.647Z,4.65
2022-08-19T05:27:55.801Z,4.07
2022-08-19T05:30:37.590Z,4.93
2022-08-19T05:33:15.578Z,5.55
2022-08-19T05:36:04.266Z,6.90
2022-08-19T05:38:34.033Z,6.35
2022-08-19T05:41:02.117Z,5.80
2022-08-19T05:43:32.211Z,5.93
2022-08-19T05:46:00.277Z,6.07
2022-08-19T05:48:28.726Z,6.25
2022-08-19T05:51:05.011Z,7.00
2022-08-19T05:53:34.568Z,7.55
2022-08-19T05:56:15.648Z,7.57
2022-08-19T05:58:45.712Z,7.93
2022-08-19T06:01:16.731Z,8.32
2022-08-19T06:03:46.769Z,10.40
2022-08-19T06:06:16.868Z,8.60
2022-08-19T06:08:50.403Z,7.82
2022-08-19T06:11:21.710Z,8.93
2022-08-19T06:13:59.690Z,10.57
2022-08-19T06:16:29.136Z,9.95
2022-08-19T06:18:58.869Z,12.07
2022-08-19T06:21:29.148Z,12.35
2022-08-19T06:23:59.561Z,14.25
2022-08-19T06:26:28.546Z,15.05
2022-08-19T06:28:57.155Z,13.93
2022-08-19T06:31:30.092Z,13.40
2022-08-19T06:33:58.131Z,14.57
2022-08-19T06:36:32.169Z,13.60
2022-08-19T06:39:02.460Z,15.75
2022-08-19T06:41:32.280Z,14.65
2022-08-19T06:44:00.345Z,16.48
2022-08-19T06:46:29.376Z,15.40
2022-08-19T06:49:04.795Z,15.80
2022-08-19T06:51:35.239Z,15.88
2022-08-19T06:54:30.750Z,15.70
2022-08-19T06:56:59.806Z,15.45
2022-08-19T06:59:33.508Z,14.50
2022-08-19T07:02:06.368Z,14.70
2022-08-19T07:04:36.732Z,12.77
2022-08-19T07:07:20.122Z,13.40
2022-08-19T07:09:59.371Z,14.00
2022-08-19T07:12:33.922Z,13.73
2022-08-19T07:15:04.281Z,11.82
2022-08-19T07:17:34.502Z,10.18
2022-08-19T07:20:11.969Z,10.77
2022-08-19T07:22:40.808Z,9.45
2022-08-19T07:25:22.983Z,9.10
2022-08-19T07:28:24.203Z,9.60
2022-08-19T07:30:53.682Z,10.20
2022-08-19T07:33:22.944Z,9.32
2022-08-19T07:35:55.283Z,11.25
2022-08-19T07:38:24.667Z,10.55
2022-08-19T07:43:37.784Z,11.80
2022-08-19T07:46:05.941Z,12.65
2022-08-19T07:48:42.693Z,13.20
2022-08-19T07:51:12.398Z,12.15
2022-08-19T07:53:42.708Z,14.00
2022-08-19T07:56:26.980Z,13.05
2022-08-19T07:59:04.336Z,13.43
2022-08-19T08:01:32.698Z,12.07
2022-08-19T08:04:26.998Z,12.90
2022-08-19T08:07:12.842Z,12.52
2022-08-19T08:09:43.056Z,12.73
2022-08-19T08:12:33.492Z,13.75
2022-08-19T08:15:18.173Z,12.52
2022-08-19T08:17:49.530Z,12.50
2022-08-19T08:20:20.599Z,12.80
2022-08-19T08:23:07.166Z,13.40
2022-08-19T08:25:39.724Z,11.43
2022-08-19T08:28:17.911Z,11.05
2022-08-19T08:30:48.946Z,10.53
2022-08-19T08:33:34.816Z,11.32
2022-08-19T08:36:06.935Z,10.77
2022-08-19T08:38:43.026Z,11.55
2022-08-19T08:41:20.633Z,12.70
2022-08-19T08:43:53.092Z,11.88
2022-08-19T08:46:30.769Z,11.50
2022-08-19T08:49:08.358Z,11.20
2022-08-19T08:54:15.934Z,10.60
2022-08-19T08:56:46.143Z,11.55
2022-08-19T08:59:22.893Z,11.07
2022-08-19T09:01:50.939Z,11.93
2022-08-19T09:04:19.093Z,10.23
2022-08-19T09:06:54.077Z,9.80
2022-08-19T09:09:33.300Z,11.88
2022-08-19T09:12:11.698Z,10.98
2022-08-19T09:14:51.454Z,10.45
2022-08-19T09:17:39.417Z,11.20
2022-08-19T09:20:22.019Z,10.57
2022-08-19T09:22:57.472Z,10.52
2022-08-19T09:25:29.686Z,11.30
2022-08-19T09:28:21.992Z,10.10
2022-08-19T09:30:54.634Z,10.63
2022-08-19T09:33:23.445Z,10.68
2022-08-19T09:35:53.568Z,10.63
2022-08-19T09:38:22.184Z,9.85
2022-08-19T09:40:51.980Z,9.68
2022-08-19T09:43:32.981Z,10.23
2022-08-19T09:46:04.840Z,10.52
2022-08-19T09:48:33.023Z,9.32
2022-08-19T09:51:06.219Z,8.23
2022-08-19T09:53:34.282Z,9.60
2022-08-19T09:56:04.161Z,8.70
2022-08-19T09:58:34.784Z,8.57
2022-08-19T10:01:06.564Z,8.27
2022-08-19T10:03:37.639Z,9.25
2022-08-19T10:06:14.646Z,8.70
2022-08-19T10:08:50.051Z,8.40
2022-08-19T10:11:27.995Z,8.77
2022-08-19T10:14:17.784Z,9.20
2022-08-19T10:17:19.859Z,9.57
2022-08-19T10:19:55.894Z,8.80
2022-08-19T10:22:26.756Z,9.15
2022-08-19T10:24:54.827Z,8.20
2022-08-19T10:27:22.976Z,8.52
2022-08-19T10:29:51.000Z,8.80
2022-08-19T10:32:33.681Z,8.38
2022-08-19T10:35:06.062Z,8.20
2022-08-19T10:37:34.445Z,8.55
2022-08-19T10:42:34.009Z,7.15
2022-08-19T10:45:02.988Z,7.75
2022-08-19T10:47:35.576Z,8.05
2022-08-19T10:50:22.274Z,8.40
2022-08-19T10:52:57.038Z,7.40
2022-08-19T10:55:43.841Z,7.25
2022-08-19T10:58:14.073Z,7.38
2022-08-19T11:00:43.460Z,6.93
2022-08-19T11:03:13.502Z,6.03
2022-08-19T11:05:42.251Z,5.85
2022-08-19T11:08:18.183Z,5.88
2022-08-19T11:10:54.519Z,6.55
2022-08-19T11:13:23.116Z,5.28
2022-08-19T11:16:01.780Z,4.55
2022-08-19T11:18:35.052Z,4.78
2022-08-19T11:21:20.284Z,5.00
2022-08-19T11:23:51.262Z,6.30
2022-08-19T11:26:20.616Z,5.65
2022-08-19T11:28:53.904Z,5.93
2022-08-19T11:31:24.875Z,5.60
2022-08-19T11:34:00.793Z,5.53
2022-08-19T11:36:32.274Z,5.25
2022-08-19T11:39:00.809Z,6.03
2022-08-19T11:41:29.367Z,5.38
2022-08-19T11:43:57.637Z,5.88
2022-08-19T11:46:30.410Z,5.90
2022-08-19T11:49:01.451Z,5.55
2022-08-19T11:51:31.059Z,5.05
2022-08-19T11:54:02.275Z,5.28
2022-08-19T11:56:30.881Z,5.60
2022-08-19T11:58:59.507Z,5.70
2022-08-19T12:01:28.709Z,4.63
2022-08-19T12:03:59.990Z,4.93
2022-08-19T12:06:30.680Z,5.57
2022-08-19T12:09:04.641Z,5.70
2022-08-19T12:11:34.406Z,5.60
2022-08-19T12:14:14.617Z,5.70
2022-08-19T12:16:49.213Z,5.55
2022-08-19T12:19:21.759Z,5.10
2022-08-19T12:21:53.924Z,5.18
2022-08-19T12:24:24.330Z,5.32
2022-08-19T12:27:00.810Z,5.20
2022-08-19T12:29:31.390Z,5.20
2022-08-19T12:32:03.888Z,5.03
2022-08-19T12:34:34.575Z,5.10
2022-08-19T12:37:05.535Z,5.70
2022-08-19T12:39:37.153Z,5.70
2022-08-19T12:42:06.953Z,4.78
2022-08-19T12:44:34.993Z,5.32
2022-08-19T12:47:05.361Z,4.65
2022-08-19T12:49:53.434Z,4.72
2022-08-19T12:52:24.484Z,5.00
2022-08-19T12:54:53.964Z,5.05
2022-08-19T12:57:31.996Z,4.35
2022-08-19T13:00:05.153Z,4.97
2022-08-19T13:02:39.084Z,5.22
2022-08-19T13:05:12.167Z,5.00
2022-08-19T13:07:41.442Z,4.57
2022-08-19T13:10:14.137Z,4.85
2022-08-19T13:12:42.921Z,4.72
2022-08-19T13:15:12.559Z,4.63
2022-08-19T13:17:44.638Z,4.63
2022-08-19T13:20:19.765Z,4.82
2022-08-19T13:22:49.354Z,4.20
2022-08-19T13:25:20.849Z,4.38
2022-08-19T13:27:50.126Z,4.53
2022-08-19T13:30:38.033Z,4.22
2022-08-19T13:33:12.755Z,5.00
2022-08-19T13:35:48.363Z,5.13
2022-08-19T13:38:21.314Z,5.20
2022-08-19T13:40:51.250Z,5.43
2022-08-19T13:43:23.812Z,5.50
2022-08-19T13:45:56.968Z,6.15
2022-08-19T13:48:27.366Z,5.45
2022-08-19T13:51:02.361Z,5.20
2022-08-19T13:56:28.446Z,5.95
2022-08-19T13:58:59.463Z,5.63
2022-08-19T14:01:35.841Z,6.15
2022-08-19T14:04:04.323Z,5.90
2022-08-19T14:06:34.090Z,5.53
2022-08-19T14:09:02.911Z,5.47
2022-08-19T14:11:32.389Z,5.55
2022-08-19T14:14:00.503Z,5.68
2022-08-19T14:16:31.286Z,5.43
2022-08-19T14:18:59.374Z,5.80
2022-08-19T14:21:27.501Z,5.53
2022-08-19T14:23:55.676Z,5.45
2022-08-19T14:26:25.906Z,5.57
2022-08-19T14:28:58.194Z,5.93
2022-08-19T14:31:30.760Z,5.82
2022-08-19T14:33:59.063Z,5.80
2022-08-19T14:36:28.370Z,5.73
2022-08-19T14:38:56.516Z,5.57
2022-08-19T14:41:25.627Z,6.43
2022-08-19T14:43:57.463Z,5.70
2022-08-19T14:46:28.098Z,5.70
2022-08-19T14:49:00.377Z,5.57
2022-08-19T14:51:29.341Z,5.68
2022-08-19T14:53:57.756Z,6.28
2022-08-19T14:56:28.342Z,6.30
2022-08-19T14:59:01.230Z,6.57
2022-08-19T15:01:29.391Z,6.97
2022-08-19T15:03:58.866Z,5.73
2022-08-19T15:06:27.559Z,5.80
2022-08-19T15:09:03.357Z,6.60
2022-08-19T15:11:33.663Z,6.13
2022-08-19T15:14:03.292Z,6.40
2022-08-19T15:16:31.407Z,6.47
2022-08-19T15:19:00.941Z,7.17
2022-08-19T15:21:31.583Z,6.60
2022-08-19T15:24:00.286Z,5.90
2022-08-19T15:26:33.033Z,6.32
2022-08-19T15:29:25.351Z,6.63
2022-08-19T15:31:56.088Z,5.93
2022-08-19T15:34:26.074Z,7.63
2022-08-19T15:36:54.568Z,6.18
2022-08-19T15:39:24.545Z,6.63
2022-08-19T15:41:52.583Z,6.55
2022-08-19T15:44:23.580Z,5.50
2022-08-19T15:47:00.715Z,5.63
2022-08-19T15:49:28.814Z,6.60
2022-08-19T15:51:57.882Z,7.00
2022-08-19T15:54:26.139Z,6.10
2022-08-19T15:57:13.925Z,5.88
2022-08-19T16:00:02.987Z,5.60
2022-08-19T16:02:48.991Z,5.65
2022-08-19T16:05:41.809Z,5.57
2022-08-19T16:08:10.184Z,5.40
2022-08-19T16:10:43.035Z,6.18
2022-08-19T16:13:11.622Z,5.07
2022-08-19T16:15:41.972Z,5.18
2022-08-19T16:18:10.044Z,5.60
2022-08-19T16:20:38.224Z,5.43
2022-08-19T16:23:06.475Z,6.13
2022-08-19T16:25:34.552Z,4.75
2022-08-19T16:28:10.631Z,5.18
2022-08-19T16:30:42.808Z,5.95
2022-08-19T16:33:19.873Z,5.50
2022-08-19T16:36:00.021Z,6.00
2022-08-19T16:38:35.516Z,6.07
2022-08-19T16:41:03.577Z,5.40
2022-08-19T16:43:31.957Z,5.38
2022-08-19T16:46:02.457Z,5.65
2022-08-19T16:48:32.841Z,5.32
2022-08-19T16:51:03.418Z,5.10
2022-08-19T16:53:32.052Z,5.82
2022-08-19T16:56:01.424Z,5.80
2022-08-19T16:58:34.159Z,5.93
2022-08-19T17:01:10.107Z,5.88
2022-08-19T17:03:39.832Z,5.20
2022-08-19T17:06:18.464Z,6.22
2022-08-19T17:08:49.911Z,5.95
2022-08-19T17:13:48.443Z,5.55
2022-08-19T17:16:19.856Z,5.95
2022-08-19T17:18:52.461Z,5.85
2022-08-19T17:21:38.075Z,6.45
2022-08-19T17:24:08.682Z,5.15
2022-08-19T17:26:37.877Z,4.55
2022-08-19T17:31:37.008Z,4.13
2022-08-19T17:34:19.865Z,3.58
2022-08-19T17:36:49.125Z,3.50
2022-08-19T17:41:45.206Z,2.20
2022-08-19T17:44:13.350Z,2.20
2022-08-19T17:46:42.817Z,2.55
2022-08-19T17:49:12.334Z,1.73
2022-08-19T17:51:45.078Z,1.58
2022-08-19T17:54:23.654Z,1.60
2022-08-19T17:56:58.656Z,1.65
2022-08-19T17:59:30.132Z,1.38
2022-08-19T18:01:59.989Z,1.60
2022-08-19T18:04:29.764Z,2.10
2022-08-19T18:07:04.168Z,1.70
2022-08-19T18:09:42.586Z,2.00
2022-08-19T18:12:14.146Z,2.00
2022-08-19T18:14:42.973Z,2.40
2022-08-19T18:17:17.384Z,1.85
2022-08-19T18:19:46.962Z,1.65
2022-08-19T18:22:24.923Z,1.63
2022-08-19T18:24:53.775Z,1.80
2022-08-19T18:27:22.359Z,1.85
2022-08-19T18:29:50.533Z,2.03
2022-08-19T18:32:21.248Z,1.90
2022-08-19T18:34:52.402Z,1.90
2022-08-19T18:37:22.709Z,2.80
2022-08-19T18:40:08.160Z,2.22
2022-08-19T18:42:53.808Z,1.92
2022-08-19T18:45:43.741Z,1.98
2022-08-19T18:48:34.848Z,2.42
2022-08-19T18:51:03.397Z,2.00
2022-08-19T18:53:37.659Z,2.60
2022-08-19T18:56:05.952Z,2.05
2022-08-19T18:58:34.999Z,1.80
2022-08-19T19:01:10.969Z,1.77
2022-08-19T19:03:43.548Z,1.92
2022-08-19T19:06:13.824Z,1.90
2022-08-19T19:08:41.961Z,1.95
2022-08-19T19:11:10.327Z,1.73
2022-08-19T19:13:39.806Z,2.03
2022-08-19T19:16:10.022Z,2.00
2022-08-19T19:18:38.238Z,2.55
2022-08-19T19:21:08.689Z,2.10
2022-08-19T19:23:50.972Z,2.17
2022-08-19T19:26:19.343Z,2.15
2022-08-19T19:28:47.669Z,1.85
2022-08-19T19:31:19.869Z,2.08
2022-08-19T19:33:48.918Z,2.00
2022-08-19T19:36:18.542Z,1.88
2022-08-19T19:38:48.937Z,1.80
2022-08-19T19:41:19.948Z,2.10
2022-08-19T19:43:56.642Z,1.70
2022-08-19T19:46:34.542Z,1.55
2022-08-19T19:49:03.098Z,2.45
2022-08-19T19:51:33.217Z,2.13
2022-08-19T19:54:06.096Z,1.45
2022-08-19T19:56:35.007Z,2.00
2022-08-19T19:59:04.063Z,2.33
2022-08-19T20:01:32.442Z,1.85
2022-08-19T20:04:03.981Z,1.83
2022-08-19T20:06:33.989Z,2.25
2022-08-19T20:09:16.359Z,2.13
2022-08-19T20:11:49.978Z,2.20
2022-08-19T20:14:24.512Z,1.98
2022-08-19T20:16:54.376Z,2.05
2022-08-19T20:19:28.725Z,2.30
2022-08-19T20:21:58.261Z,1.85
2022-08-19T20:24:32.404Z,2.03
2022-08-19T20:27:04.917Z,1.92
2022-08-19T20:29:39.650Z,2.30
2022-08-19T20:32:10.217Z,2.42
2022-08-19T20:34:38.408Z,2.58
2022-08-19T20:37:09.398Z,2.40
2022-08-19T20:39:38.000Z,2.22
2022-08-19T20:42:06.453Z,2.35
2022-08-19T20:44:34.575Z,2.28
2022-08-19T20:47:04.031Z,2.63
2022-08-19T20:49:32.543Z,2.72
2022-08-19T20:52:00.705Z,2.60
2022-08-19T20:54:32.518Z,2.90
2022-08-19T20:57:00.609Z,2.53
2022-08-19T20:59:28.717Z,3.17
2022-08-19T21:01:57.427Z,2.88
2022-08-19T21:04:25.463Z,2.95
2022-08-19T21:06:54.697Z,2.67
2022-08-19T21:09:22.807Z,2.72
2022-08-19T21:11:52.216Z,3.30
2022-08-19T21:16:49.286Z,3.30
2022-08-19T21:19:22.035Z,3.10
2022-08-19T21:21:52.168Z,3.42
2022-08-19T21:24:20.206Z,3.03
2022-08-19T21:26:51.220Z,3.00
2022-08-19T21:29:22.074Z,3.42
2022-08-19T21:31:51.056Z,3.42
2022-08-19T21:34:19.375Z,3.72
2022-08-19T21:36:47.464Z,3.63
2022-08-19T21:39:15.529Z,3.13
2022-08-19T21:41:43.911Z,3.67
2022-08-19T21:44:12.204Z,3.42
2022-08-19T21:46:42.497Z,3.90
2022-08-19T21:49:10.604Z,3.85
2022-08-19T21:51:38.859Z,3.72
2022-08-19T21:54:14.225Z,4.07
2022-08-19T21:56:42.478Z,4.07
2022-08-19T21:59:10.516Z,4.82
2022-08-19T22:01:38.642Z,4.20
2022-08-19T22:04:08.033Z,3.97
2022-08-19T22:06:36.417Z,4.55
2022-08-19T22:09:04.531Z,3.53
2022-08-19T22:11:32.629Z,4.05
2022-08-19T22:14:04.295Z,3.88
2022-08-19T22:16:32.653Z,3.78
2022-08-19T22:19:00.729Z,4.30
2022-08-19T22:21:40.210Z,3.47
2022-08-19T22:24:10.098Z,4.15
2022-08-19T22:26:38.137Z,4.05
2022-08-19T22:29:06.439Z,4.40
2022-08-19T22:31:34.520Z,4.70
2022-08-19T22:34:03.676Z,4.63
2022-08-19T22:36:33.076Z,4.40
2022-08-19T22:41:29.096Z,3.65
2022-08-19T22:43:58.047Z,3.22
2022-08-19T22:46:26.063Z,3.67
2022-08-19T22:49:01.230Z,4.30
2022-08-19T22:51:47.264Z,3.75
2022-08-19T22:54:16.780Z,3.65
2022-08-19T22:59:13.262Z,3.50
2022-08-19T23:01:41.683Z,3.25
2022-08-19T23:04:09.886Z,4.07
2022-08-19T23:06:41.439Z,4.18
2022-08-19T23:09:10.557Z,3.60
2022-08-19T23:11:42.386Z,3.58
2022-08-19T23:14:12.379Z,4.10
2022-08-19T23:16:41.567Z,4.35
2022-08-19T23:21:38.632Z,4.32
2022-08-19T23:24:07.309Z,4.40
2022-08-19T23:26:36.204Z,4.40
2022-08-19T23:29:24.104Z,4.30
2022-08-19T23:31:52.118Z,4.22
2022-08-19T23:34:20.168Z,4.03
2022-08-19T23:36:48.316Z,4.18
2022-08-19T23:39:16.539Z,5.47
2022-08-19T23:41:44.572Z,4.90
2022-08-19T23:44:14.490Z,5.07
2022-08-19T23:46:54.939Z,6.05
2022-08-19T23:49:24.349Z,6.55
2022-08-19T23:51:52.594Z,7.00
2022-08-19T23:54:20.693Z,5.50
2022-08-19T23:56:48.728Z,5.40
2022-08-19T23:59:19.185Z,5.20
